Time;durP1;ratioP1;P1;durP2;ratioP2;P2;SDS_P1;SDS_P2;PMS_P1;PMS_P2;Temp;Humidity;BMP_temperature;BMP_pressure;BME280_temperature;BME280_humidity;BME280_pressure;Samples;Min_cycle;Max_cycle;Signal;HPM_P1;HPM_P2
2022/07/06 00:00:56;;;;;;;8.90;1.40;;;;;;;;;;5030014;28;20434;-81
2022/07/06 00:03:23;;;;;;;6.97;1.52;;;;;;;;;;5011292;28;20080;-82
2022/07/06 00:05:50;;;;;;;3.33;1.33;;;;;;;;;;5012821;28;20041;-81
2022/07/06 00:08:17;;;;;;;7.30;1.20;;;;;;;;;;5009145;28;20506;-82
2022/07/06 00:10:45;;;;;;;9.98;3.25;;;;;;;;;;5029350;28;20088;-81
2022/07/06 00:13:12;;;;;;;3.15;1.42;;;;;;;;;;5030734;28;20077;-82
2022/07/06 00:15:39;;;;;;;8.57;1.50;;;;;;;;;;5012904;28;20127;-82
2022/07/06 00:18:07;;;;;;;4.07;1.40;;;;;;;;;;5028284;28;20501;-82
2022/07/06 00:20:34;;;;;;;4.05;1.17;;;;;;;;;;5014956;28;20053;-82
2022/07/06 00:23:01;;;;;;;13.10;1.80;;;;;;;;;;5012384;28;20133;-82
2022/07/06 00:25:29;;;;;;;7.43;1.58;;;;;;;;;;5028924;28;20081;-82
2022/07/06 00:27:56;;;;;;;10.38;1.77;;;;;;;;;;5011802;28;20132;-82
2022/07/06 00:30:23;;;;;;;11.07;2.13;;;;;;;;;;5013353;28;20053;-82
2022/07/06 00:32:50;;;;;;;5.85;1.63;;;;;;;;;;5032149;28;20625;-81
2022/07/06 00:35:18;;;;;;;10.85;2.00;;;;;;;;;;5025099;28;20077;-81
2022/07/06 00:37:45;;;;;;;2.97;1.58;;;;;;;;;;5025166;28;20049;-81
2022/07/06 00:40:13;;;;;;;7.03;1.70;;;;;;;;;;5021988;28;20072;-81
2022/07/06 00:42:44;;;;;;;4.90;1.92;;;;;;;;;;5021598;28;20140;-81
2022/07/06 00:45:12;;;;;;;2.28;1.40;;;;;;;;;;5021850;28;20130;-81
2022/07/06 00:47:40;;;;;;;5.25;1.80;;;;;;;;;;5000626;28;20132;-82
2022/07/06 00:50:14;;;;;;;4.53;2.05;;;;;;;;;;5022273;28;20505;-81
2022/07/06 00:52:42;;;;;;;7.60;1.80;;;;;;;;;;5023959;28;20651;-81
2022/07/06 00:55:10;;;;;;;2.50;1.52;;;;;;;;;;5021231;28;20526;-81
2022/07/06 00:57:37;;;;;;;7.63;1.75;;;;;;;;;;5015133;28;20172;-80
2022/07/06 01:00:05;;;;;;;7.43;1.98;;;;;;;;;;5009499;28;20055;-81
2022/07/06 01:06:01;;;;;;;6.50;1.70;;;;;;;;;;4990214;28;20054;-76
2022/07/06 01:08:29;;;;;;;10.10;2.13;;;;;;;;;;4980983;28;20123;-76
2022/07/06 01:10:56;;;;;;;4.22;1.55;;;;;;;;;;5001440;28;20053;-76
2022/07/06 01:13:23;;;;;;;11.88;1.98;;;;;;;;;;4994876;28;20086;-75
2022/07/06 01:15:51;;;;;;;11.65;1.95;;;;;;;;;;4987274;28;20573;-75
2022/07/06 01:18:18;;;;;;;5.72;2.20;;;;;;;;;;4987731;28;20486;-76
2022/07/06 01:20:46;;;;;;;7.07;2.55;;;;;;;;;;4970661;28;20080;-76
2022/07/06 01:23:13;;;;;;;10.20;3.00;;;;;;;;;;4996333;28;20141;-76
2022/07/06 01:25:40;;;;;;;6.38;1.95;;;;;;;;;;5006394;28;20463;-76
2022/07/06 01:28:08;;;;;;;6.22;1.88;;;;;;;;;;5006940;28;20545;-75
2022/07/06 01:30:35;;;;;;;9.95;2.30;;;;;;;;;;5005921;28;20103;-75
2022/07/06 01:33:02;;;;;;;11.55;2.10;;;;;;;;;;4999954;28;20105;-77
2022/07/06 01:35:32;;;;;;;7.07;2.33;;;;;;;;;;4970097;28;20054;-77
2022/07/06 01:37:59;;;;;;;11.20;2.40;;;;;;;;;;4970897;28;20145;-77
2022/07/06 01:40:27;;;;;;;7.80;2.10;;;;;;;;;;4988422;28;20133;-76
2022/07/06 01:42:54;;;;;;;5.03;1.58;;;;;;;;;;4993277;28;20145;-77
2022/07/06 01:45:21;;;;;;;8.85;1.80;;;;;;;;;;5008094;28;20092;-77
2022/07/06 01:47:48;;;;;;;6.15;1.95;;;;;;;;;;5006579;28;20101;-76
2022/07/06 01:50:16;;;;;;;12.00;1.77;;;;;;;;;;5007058;28;20095;-76
2022/07/06 01:52:43;;;;;;;8.35;1.80;;;;;;;;;;5002793;28;20128;-77
2022/07/06 01:58:03;;;;;;;7.10;1.70;;;;;;;;;;4986307;28;20498;-76
2022/07/06 02:00:30;;;;;;;5.50;1.63;;;;;;;;;;5002378;28;20133;-77
2022/07/06 02:06:01;;;;;;;6.63;1.67;;;;;;;;;;5006693;28;20069;-81
2022/07/06 02:08:41;;;;;;;8.80;1.83;;;;;;;;;;5012968;28;20129;-81
2022/07/06 02:11:09;;;;;;;6.90;1.40;;;;;;;;;;5008349;28;20889;-76
2022/07/06 02:17:01;;;;;;;6.82;1.50;;;;;;;;;;5037723;22;20072;-82
2022/07/06 02:19:28;;;;;;;6.93;1.90;;;;;;;;;;5033272;28;20053;-83
2022/07/06 02:21:56;;;;;;;11.95;2.00;;;;;;;;;;5015303;28;20081;-82
2022/07/06 02:24:23;;;;;;;8.25;1.73;;;;;;;;;;5033216;28;20458;-82
2022/07/06 02:26:50;;;;;;;8.68;1.83;;;;;;;;;;5032781;28;20046;-83
2022/07/06 02:29:18;;;;;;;3.78;1.70;;;;;;;;;;5032243;28;20512;-83
2022/07/06 02:31:45;;;;;;;3.90;1.63;;;;;;;;;;5027659;28;20123;-83
2022/07/06 02:34:13;;;;;;;6.57;1.83;;;;;;;;;;5030992;28;20494;-83
2022/07/06 02:36:40;;;;;;;8.70;1.50;;;;;;;;;;5033390;28;20092;-83
2022/07/06 02:39:07;;;;;;;16.00;3.10;;;;;;;;;;5033303;28;20140;-82
2022/07/06 02:41:35;;;;;;;9.13;2.00;;;;;;;;;;5032866;28;20069;-81
2022/07/06 02:44:02;;;;;;;3.88;1.55;;;;;;;;;;5032874;28;20091;-82
2022/07/06 02:46:29;;;;;;;4.82;1.55;;;;;;;;;;5033945;28;20087;-81
2022/07/06 02:48:57;;;;;;;4.95;1.70;;;;;;;;;;5034039;28;20077;-82
2022/07/06 02:51:24;;;;;;;4.05;1.33;;;;;;;;;;5033753;28;20095;-83
2022/07/06 02:53:51;;;;;;;6.32;1.60;;;;;;;;;;5034548;28;20132;-82
2022/07/06 02:56:19;;;;;;;7.15;1.40;;;;;;;;;;5015879;28;20077;-82
2022/07/06 02:58:46;;;;;;;5.05;1.50;;;;;;;;;;5033880;28;20081;-82
2022/07/06 03:01:13;;;;;;;7.63;1.73;;;;;;;;;;5033303;28;20105;-82
2022/07/06 03:03:41;;;;;;;5.22;1.90;;;;;;;;;;5033164;28;20664;-82
2022/07/06 03:06:08;;;;;;;6.15;1.83;;;;;;;;;;5033099;28;20482;-83
2022/07/06 03:08:36;;;;;;;10.93;1.52;;;;;;;;;;5033437;28;20049;-82
2022/07/06 03:11:03;;;;;;;8.05;2.00;;;;;;;;;;5015629;28;20092;-82
2022/07/06 03:13:30;;;;;;;8.35;1.60;;;;;;;;;;5015973;28;20478;-82
2022/07/06 03:15:58;;;;;;;8.30;1.52;;;;;;;;;;5033105;28;20137;-83
2022/07/06 03:18:25;;;;;;;3.88;1.50;;;;;;;;;;5032854;28;20058;-82
2022/07/06 03:20:54;;;;;;;7.60;1.67;;;;;;;;;;5031174;28;20053;-83
2022/07/06 03:23:21;;;;;;;4.68;1.38;;;;;;;;;;5031833;28;20084;-83
2022/07/06 03:25:48;;;;;;;9.88;1.48;;;;;;;;;;5032728;28;20465;-82
2022/07/06 03:28:15;;;;;;;8.45;1.75;;;;;;;;;;5032362;28;20615;-83
2022/07/06 03:30:43;;;;;;;7.00;2.25;;;;;;;;;;5014618;28;20093;-82
2022/07/06 03:33:10;;;;;;;5.18;1.70;;;;;;;;;;5014809;28;20445;-81
2022/07/06 03:35:37;;;;;;;10.68;1.83;;;;;;;;;;5032750;28;20091;-82
2022/07/06 03:38:05;;;;;;;5.43;1.60;;;;;;;;;;5032273;28;20049;-81
2022/07/06 03:40:32;;;;;;;7.50;1.75;;;;;;;;;;5032304;28;20141;-81
2022/07/06 03:42:59;;;;;;;6.63;1.40;;;;;;;;;;5032499;28;20120;-81
2022/07/06 03:45:27;;;;;;;4.40;1.70;;;;;;;;;;5032401;28;20565;-81
2022/07/06 03:47:54;;;;;;;4.78;1.75;;;;;;;;;;5032388;28;20128;-82
2022/07/06 03:50:21;;;;;;;5.30;1.50;;;;;;;;;;5032084;28;20722;-82
2022/07/06 03:52:49;;;;;;;9.98;1.77;;;;;;;;;;5014295;28;20493;-82
2022/07/06 03:55:16;;;;;;;6.57;1.75;;;;;;;;;;5014320;28;20089;-82
2022/07/06 03:57:43;;;;;;;4.35;1.45;;;;;;;;;;5014410;28;20076;-81
2022/07/06 04:00:11;;;;;;;3.70;1.58;;;;;;;;;;5031895;28;20128;-81
2022/07/06 04:02:38;;;;;;;5.03;1.42;;;;;;;;;;5031284;28;20137;-81
2022/07/06 04:05:06;;;;;;;8.77;1.77;;;;;;;;;;5029671;28;20095;-84
2022/07/06 04:07:33;;;;;;;11.35;1.40;;;;;;;;;;5036996;22;20472;-82
2022/07/06 04:10:00;;;;;;;5.35;1.83;;;;;;;;;;5027722;28;20081;-84
2022/07/06 04:12:28;;;;;;;3.17;1.30;;;;;;;;;;5027497;28;20492;-85
2022/07/06 04:15:04;;;;;;;9.02;1.73;;;;;;;;;;5031209;28;20053;-83
2022/07/06 04:20:18;;;;;;;3.13;1.10;;;;;;;;;;5031355;28;20064;-83
2022/07/06 04:22:46;;;;;;;6.22;1.45;;;;;;;;;;5013738;28;20080;-86
2022/07/06 04:25:13;;;;;;;8.68;1.70;;;;;;;;;;5013154;28;20088;-83
2022/07/06 04:27:41;;;;;;;3.35;1.50;;;;;;;;;;5031015;28;20471;-84
2022/07/06 04:30:09;;;;;;;2.17;1.30;;;;;;;;;;5029783;28;20565;-83
2022/07/06 04:32:36;;;;;;;5.05;1.10;;;;;;;;;;5030062;28;20137;-86
2022/07/06 04:35:04;;;;;;;10.63;1.85;;;;;;;;;;5029850;28;20096;-87
2022/07/06 04:37:32;;;;;;;10.25;1.45;;;;;;;;;;5030796;28;20085;-83
2022/07/06 04:43:03;;;;;;;4.32;1.35;;;;;;;;;;5008862;28;20053;-77
2022/07/06 04:45:31;;;;;;;7.18;1.70;;;;;;;;;;5009438;28;20056;-78
2022/07/06 04:47:58;;;;;;;6.80;1.38;;;;;;;;;;5007613;28;20136;-77
2022/07/06 04:50:26;;;;;;;7.05;1.30;;;;;;;;;;5006708;28;20172;-76
2022/07/06 04:52:53;;;;;;;5.57;1.52;;;;;;;;;;5005952;28;20212;-76
2022/07/06 04:55:20;;;;;;;4.90;1.50;;;;;;;;;;5007486;28;20151;-77
2022/07/06 04:57:48;;;;;;;8.25;1.40;;;;;;;;;;5011339;28;20132;-78
2022/07/06 05:00:15;;;;;;;5.30;1.27;;;;;;;;;;4994634;28;20080;-77
2022/07/06 05:02:42;;;;;;;9.20;2.10;;;;;;;;;;5005742;28;20506;-76
2022/07/06 05:05:10;;;;;;;4.38;1.25;;;;;;;;;;5006492;28;20061;-76
2022/07/06 05:07:40;;;;;;;9.85;1.80;;;;;;;;;;5006916;28;20510;-76
2022/07/06 05:10:08;;;;;;;5.72;1.67;;;;;;;;;;5008515;28;20156;-77
2022/07/06 05:12:36;;;;;;;7.70;1.35;;;;;;;;;;5008965;28;20123;-77
2022/07/06 05:15:03;;;;;;;6.32;1.38;;;;;;;;;;5006620;28;20089;-77
2022/07/06 05:17:31;;;;;;;6.47;1.17;;;;;;;;;;5003692;28;20085;-77
2022/07/06 05:19:58;;;;;;;7.15;1.55;;;;;;;;;;4999411;28;20493;-76
2022/07/06 05:22:26;;;;;;;8.07;1.45;;;;;;;;;;5004199;28;20742;-76
2022/07/06 05:24:53;;;;;;;7.75;1.40;;;;;;;;;;5006665;28;20168;-77
2022/07/06 05:27:21;;;;;;;6.78;1.60;;;;;;;;;;5006452;28;20111;-75
2022/07/06 05:29:48;;;;;;;8.50;1.33;;;;;;;;;;5000137;28;20086;-76
2022/07/06 05:32:15;;;;;;;4.18;1.50;;;;;;;;;;5003177;28;20053;-79
2022/07/06 05:34:42;;;;;;;3.20;1.08;;;;;;;;;;4998381;28;20136;-76
2022/07/06 05:37:10;;;;;;;5.68;1.10;;;;;;;;;;5002195;28;20053;-75
2022/07/06 05:39:38;;;;;;;8.50;1.63;;;;;;;;;;5008967;28;20104;-75
2022/07/06 05:42:09;;;;;;;3.40;1.10;;;;;;;;;;5010126;28;20152;-76
2022/07/06 05:44:36;;;;;;;2.78;1.20;;;;;;;;;;5008898;28;20054;-76
2022/07/06 05:52:36;;;;;;;6.65;1.30;;;;;;;;;;5010208;28;20145;-75
2022/07/06 05:55:03;;;;;;;8.27;0.98;;;;;;;;;;5008417;28;20132;-75
2022/07/06 05:57:30;;;;;;;3.20;1.10;;;;;;;;;;5009656;28;20169;-75
2022/07/06 05:59:58;;;;;;;5.47;1.20;;;;;;;;;;5009796;28;20125;-75
2022/07/06 06:02:25;;;;;;;5.78;1.33;;;;;;;;;;5009577;28;20057;-75
2022/07/06 06:04:53;;;;;;;8.05;1.48;;;;;;;;;;5010133;28;20825;-77
2022/07/06 06:07:20;;;;;;;5.95;1.35;;;;;;;;;;5008739;28;20089;-77
2022/07/06 06:09:48;;;;;;;6.13;0.82;;;;;;;;;;5008387;28;20136;-77
2022/07/06 06:12:15;;;;;;;2.60;1.10;;;;;;;;;;5007980;28;20100;-77
2022/07/06 06:14:42;;;;;;;4.53;1.10;;;;;;;;;;5008062;28;20645;-76
2022/07/06 06:17:10;;;;;;;3.55;1.00;;;;;;;;;;5008296;28;20137;-77
2022/07/06 06:19:37;;;;;;;5.57;1.00;;;;;;;;;;5009545;28;20058;-76
2022/07/06 06:22:05;;;;;;;4.43;1.00;;;;;;;;;;5008968;28;20165;-77
2022/07/06 06:24:32;;;;;;;12.07;1.33;;;;;;;;;;5009521;28;20137;-77
2022/07/06 06:26:59;;;;;;;7.45;1.35;;;;;;;;;;5009112;28;20129;-77
2022/07/06 06:29:27;;;;;;;7.22;1.05;;;;;;;;;;5007310;28;20081;-77
2022/07/06 06:31:54;;;;;;;7.70;1.27;;;;;;;;;;5006937;28;20139;-77
2022/07/06 06:34:21;;;;;;;5.53;0.85;;;;;;;;;;5008801;28;20077;-77
2022/07/06 06:36:49;;;;;;;9.98;1.38;;;;;;;;;;5008463;28;20100;-77
2022/07/06 06:39:16;;;;;;;2.33;0.90;;;;;;;;;;5008404;28;20093;-77
2022/07/06 06:41:43;;;;;;;2.75;0.90;;;;;;;;;;5007661;28;20136;-75
2022/07/06 06:44:10;;;;;;;4.07;0.77;;;;;;;;;;5008302;28;20139;-75
2022/07/06 06:46:39;;;;;;;1.33;0.50;;;;;;;;;;5008461;28;20100;-77
2022/07/06 06:49:06;;;;;;;3.95;1.08;;;;;;;;;;5007878;28;20049;-75
2022/07/06 06:51:34;;;;;;;3.75;0.88;;;;;;;;;;5006952;28;20168;-76
2022/07/06 06:54:01;;;;;;;3.38;1.10;;;;;;;;;;5007393;28;20129;-76
2022/07/06 06:56:28;;;;;;;2.83;1.00;;;;;;;;;;5008008;28;20141;-75
2022/07/06 06:58:56;;;;;;;5.75;1.13;;;;;;;;;;5008182;28;20510;-76
2022/07/06 07:01:43;;;;;;;4.50;0.90;;;;;;;;;;5006296;28;20504;-75
2022/07/06 07:04:11;;;;;;;2.72;0.60;;;;;;;;;;5008162;28;20061;-75
2022/07/06 07:06:39;;;;;;;12.88;1.30;;;;;;;;;;5006447;28;20041;-76
2022/07/06 07:09:07;;;;;;;2.25;0.77;;;;;;;;;;5007821;28;20144;-75
2022/07/06 07:11:35;;;;;;;5.88;0.80;;;;;;;;;;5007316;28;20510;-75
2022/07/06 07:14:02;;;;;;;3.55;0.95;;;;;;;;;;5006378;28;20288;-76
2022/07/06 07:16:30;;;;;;;5.75;1.10;;;;;;;;;;5008071;28;20144;-75
2022/07/06 07:18:57;;;;;;;3.35;0.60;;;;;;;;;;5007918;28;20101;-75
2022/07/06 07:21:25;;;;;;;4.55;0.70;;;;;;;;;;5005793;28;20577;-75
2022/07/06 07:23:52;;;;;;;4.32;1.00;;;;;;;;;;5007796;28;20537;-75
2022/07/06 07:26:19;;;;;;;6.13;1.08;;;;;;;;;;5006506;28;20733;-75
2022/07/06 07:28:47;;;;;;;6.70;0.70;;;;;;;;;;5006858;28;20054;-76
2022/07/06 07:31:14;;;;;;;4.57;0.73;;;;;;;;;;5006663;28;20513;-75
2022/07/06 07:33:41;;;;;;;4.82;0.60;;;;;;;;;;5007916;28;20166;-76
2022/07/06 07:36:09;;;;;;;1.17;0.43;;;;;;;;;;5008442;28;20050;-76
2022/07/06 07:38:36;;;;;;;3.22;0.80;;;;;;;;;;5007949;28;20144;-76
2022/07/06 07:41:03;;;;;;;7.30;0.95;;;;;;;;;;5006577;28;20050;-76
2022/07/06 07:43:31;;;;;;;9.15;0.98;;;;;;;;;;5005410;28;20061;-75
2022/07/06 07:45:58;;;;;;;8.65;0.88;;;;;;;;;;5005415;28;20096;-76
2022/07/06 07:48:25;;;;;;;5.65;0.95;;;;;;;;;;5006930;28;20111;-75
2022/07/06 07:50:53;;;;;;;3.03;0.85;;;;;;;;;;5005230;28;20050;-75
2022/07/06 07:53:20;;;;;;;3.10;0.52;;;;;;;;;;5006308;28;20092;-75
2022/07/06 07:55:48;;;;;;;4.18;0.60;;;;;;;;;;5006497;28;20170;-75
2022/07/06 07:58:15;;;;;;;2.20;0.68;;;;;;;;;;5006907;28;20141;-75
2022/07/06 08:00:43;;;;;;;7.13;0.80;;;;;;;;;;5004230;28;20089;-75
2022/07/06 08:03:10;;;;;;;3.28;0.70;;;;;;;;;;5005291;28;20092;-75
2022/07/06 08:05:37;;;;;;;1.98;0.73;;;;;;;;;;5004876;28;20100;-75
2022/07/06 08:08:05;;;;;;;4.18;0.70;;;;;;;;;;5004777;28;20165;-75
2022/07/06 08:10:32;;;;;;;2.40;0.77;;;;;;;;;;5005959;28;20167;-75
2022/07/06 08:13:18;;;;;;;4.03;0.80;;;;;;;;;;5006379;28;20441;-75
2022/07/06 08:15:45;;;;;;;3.88;0.50;;;;;;;;;;5006221;28;20119;-75
2022/07/06 08:18:13;;;;;;;5.82;0.40;;;;;;;;;;5007304;28;20046;-75
2022/07/06 08:20:40;;;;;;;6.03;0.50;;;;;;;;;;5004891;28;20057;-75
2022/07/06 08:23:28;;;;;;;2.85;0.60;;;;;;;;;;5004525;28;20061;-75
2022/07/06 08:25:55;;;;;;;9.95;1.13;;;;;;;;;;5005939;28;20049;-75
2022/07/06 08:28:23;;;;;;;13.88;1.08;;;;;;;;;;5005837;28;20062;-75
2022/07/06 08:30:51;;;;;;;8.07;1.00;;;;;;;;;;5006535;28;20050;-75
2022/07/06 08:33:18;;;;;;;3.63;0.98;;;;;;;;;;5007185;28;20112;-75
2022/07/06 08:35:45;;;;;;;2.15;0.43;;;;;;;;;;5006873;28;20057;-74
2022/07/06 08:38:13;;;;;;;5.20;0.80;;;;;;;;;;5007184;28;20722;-75
2022/07/06 08:40:41;;;;;;;4.90;0.68;;;;;;;;;;5006824;28;20108;-78
2022/07/06 08:43:08;;;;;;;3.80;0.60;;;;;;;;;;5005238;28;20383;-75
2022/07/06 08:45:35;;;;;;;6.70;0.80;;;;;;;;;;5007023;28;20140;-75
2022/07/06 08:48:07;;;;;;;6.45;1.30;;;;;;;;;;5006834;28;20054;-74
2022/07/06 08:50:34;;;;;;;4.53;0.57;;;;;;;;;;5006537;28;20042;-75
2022/07/06 08:53:02;;;;;;;8.48;0.73;;;;;;;;;;5006902;28;20536;-75
2022/07/06 08:55:30;;;;;;;11.00;0.85;;;;;;;;;;5007144;28;20140;-78
2022/07/06 08:57:58;;;;;;;1.63;0.55;;;;;;;;;;5005534;28;20068;-75
2022/07/06 09:00:25;;;;;;;5.35;0.55;;;;;;;;;;5004949;28;20139;-75
2022/07/06 09:02:56;;;;;;;3.47;0.80;;;;;;;;;;5005893;28;20653;-75
2022/07/06 09:05:24;;;;;;;3.42;0.60;;;;;;;;;;5006584;28;20136;-75
2022/07/06 09:07:53;;;;;;;3.85;0.68;;;;;;;;;;5006676;28;20053;-75
2022/07/06 09:10:26;;;;;;;4.93;0.47;;;;;;;;;;5004986;28;20050;-76
2022/07/06 09:12:54;;;;;;;5.63;1.10;;;;;;;;;;5004663;28;20722;-75
2022/07/06 09:15:24;;;;;;;3.65;0.60;;;;;;;;;;5006189;28;20112;-75
2022/07/06 09:17:56;;;;;;;1.50;0.63;;;;;;;;;;5005483;28;20459;-75
2022/07/06 09:20:24;;;;;;;3.92;0.60;;;;;;;;;;5005304;28;20053;-75
2022/07/06 09:22:54;;;;;;;2.92;0.77;;;;;;;;;;5004946;28;20054;-75
2022/07/06 09:25:21;;;;;;;6.47;1.17;;;;;;;;;;5006371;28;20150;-75
2022/07/06 09:27:54;;;;;;;2.63;1.00;;;;;;;;;;5006051;28;20119;-77
2022/07/06 09:30:22;;;;;;;15.95;0.98;;;;;;;;;;5006031;28;20085;-75
2022/07/06 09:32:50;;;;;;;4.18;0.57;;;;;;;;;;5005734;28;20572;-75
2022/07/06 09:35:21;;;;;;;8.85;0.75;;;;;;;;;;5003901;28;20053;-75
2022/07/06 09:37:59;;;;;;;5.28;0.77;;;;;;;;;;5005052;28;20139;-75
2022/07/06 09:40:27;;;;;;;3.97;0.80;;;;;;;;;;5005680;28;20081;-75
2022/07/06 09:43:14;;;;;;;5.97;0.80;;;;;;;;;;5005581;28;20054;-75
2022/07/06 09:45:42;;;;;;;1.98;0.68;;;;;;;;;;5005267;28;20487;-75
2022/07/06 09:48:11;;;;;;;1.35;0.68;;;;;;;;;;5003540;28;20094;-75
2022/07/06 09:50:39;;;;;;;5.47;1.38;;;;;;;;;;5004700;28;20133;-75
2022/07/06 09:53:07;;;;;;;5.38;0.85;;;;;;;;;;5004671;28;20089;-75
2022/07/06 09:55:34;;;;;;;3.47;0.57;;;;;;;;;;5004917;28;20140;-74
2022/07/06 09:58:01;;;;;;;5.18;0.60;;;;;;;;;;5005149;28;20058;-75
2022/07/06 10:00:28;;;;;;;4.05;0.63;;;;;;;;;;5005796;28;20077;-75
2022/07/06 10:02:56;;;;;;;6.57;0.57;;;;;;;;;;5004906;28;20126;-77
2022/07/06 10:05:29;;;;;;;3.70;0.50;;;;;;;;;;5002426;28;20081;-75
2022/07/06 10:07:58;;;;;;;4.97;0.93;;;;;;;;;;5003050;28;20095;-75
2022/07/06 10:10:27;;;;;;;9.07;1.30;;;;;;;;;;5003867;28;20773;-76
2022/07/06 10:12:55;;;;;;;2.17;0.43;;;;;;;;;;5002266;28;20682;-76
2022/07/06 10:15:25;;;;;;;3.30;0.60;;;;;;;;;;5005285;28;20156;-76
2022/07/06 10:17:52;;;;;;;0.85;0.47;;;;;;;;;;5006020;28;20084;-76
2022/07/06 10:20:20;;;;;;;3.17;0.57;;;;;;;;;;5004846;28;20046;-76
2022/07/06 10:22:48;;;;;;;4.13;0.70;;;;;;;;;;5004097;28;20133;-76
2022/07/06 10:25:16;;;;;;;2.58;0.40;;;;;;;;;;5009435;28;20144;-76
2022/07/06 10:27:45;;;;;;;2.90;0.77;;;;;;;;;;5009496;28;20070;-76
2022/07/06 10:30:13;;;;;;;4.43;0.70;;;;;;;;;;5007978;28;20880;-75
2022/07/06 10:32:41;;;;;;;6.60;0.60;;;;;;;;;;5009055;28;20139;-76
2022/07/06 10:35:09;;;;;;;1.10;0.40;;;;;;;;;;5009430;28;20722;-76
2022/07/06 10:37:37;;;;;;;11.20;0.43;;;;;;;;;;5009565;28;20056;-76
2022/07/06 10:43:12;;;;;;;1.63;0.35;;;;;;;;;;4996556;28;20054;-76
2022/07/06 10:45:51;;;;;;;7.15;0.73;;;;;;;;;;5007312;28;20104;-76
2022/07/06 10:48:20;;;;;;;3.50;0.40;;;;;;;;;;5008261;28;20050;-76
2022/07/06 10:53:45;;;;;;;1.58;0.60;;;;;;;;;;5005983;28;20103;-81
2022/07/06 10:56:12;;;;;;;6.20;0.50;;;;;;;;;;5005465;28;20083;-82
2022/07/06 10:58:50;;;;;;;1.85;0.30;;;;;;;;;;5005960;28;20084;-81
2022/07/06 11:01:19;;;;;;;3.20;0.80;;;;;;;;;;5005232;28;20073;-81
2022/07/06 11:03:46;;;;;;;3.15;0.50;;;;;;;;;;5006729;28;20054;-80
2022/07/06 11:06:15;;;;;;;4.53;0.50;;;;;;;;;;5005289;28;20493;-81
2022/07/06 11:08:52;;;;;;;3.72;0.85;;;;;;;;;;5007202;28;20121;-81
2022/07/06 11:11:23;;;;;;;2.25;0.50;;;;;;;;;;5006318;28;20548;-81
2022/07/06 11:13:55;;;;;;;0.88;0.40;;;;;;;;;;5005212;28;20146;-81
2022/07/06 11:16:26;;;;;;;2.47;0.57;;;;;;;;;;5006780;28;20466;-82
2022/07/06 11:19:01;;;;;;;2.97;0.47;;;;;;;;;;5004950;28;20053;-81
2022/07/06 11:21:43;;;;;;;2.05;0.82;;;;;;;;;;4987106;28;20102;-81
2022/07/06 11:24:13;;;;;;;4.90;0.60;;;;;;;;;;4987361;28;20082;-81
2022/07/06 11:26:42;;;;;;;4.72;0.40;;;;;;;;;;5001760;28;20133;-82
2022/07/06 11:29:10;;;;;;;1.50;0.45;;;;;;;;;;5001737;28;20247;-80
2022/07/06 11:31:38;;;;;;;1.02;0.30;;;;;;;;;;5004610;28;20120;-82
2022/07/06 11:34:06;;;;;;;3.65;0.90;;;;;;;;;;5006748;28;20516;-81
2022/07/06 11:36:34;;;;;;;5.68;0.70;;;;;;;;;;5006502;28;20060;-81
2022/07/06 11:39:08;;;;;;;4.72;0.55;;;;;;;;;;5004934;28;20100;-81
2022/07/06 11:41:36;;;;;;;3.70;0.50;;;;;;;;;;5006180;28;20124;-81
2022/07/06 11:44:04;;;;;;;4.82;0.60;;;;;;;;;;5004405;28;20081;-82
2022/07/06 11:46:33;;;;;;;2.00;0.40;;;;;;;;;;5004879;28;20133;-81
2022/07/06 11:49:08;;;;;;;1.88;0.40;;;;;;;;;;5004314;28;20060;-81
2022/07/06 11:51:37;;;;;;;1.50;0.80;;;;;;;;;;5004541;28;20050;-81
2022/07/06 11:54:17;;;;;;;3.90;0.50;;;;;;;;;;5004737;28;20517;-81
2022/07/06 11:56:49;;;;;;;2.40;1.08;;;;;;;;;;5004170;28;20054;-81
2022/07/06 11:59:16;;;;;;;9.27;0.80;;;;;;;;;;5005859;28;20137;-81
2022/07/06 12:01:44;;;;;;;0.88;0.43;;;;;;;;;;5005427;28;20089;-81
2022/07/06 12:04:12;;;;;;;4.25;0.70;;;;;;;;;;5010774;28;20108;-81
2022/07/06 12:06:39;;;;;;;3.72;1.13;;;;;;;;;;5012288;28;20785;-81
2022/07/06 12:09:10;;;;;;;8.52;1.30;;;;;;;;;;5011056;28;20046;-81
2022/07/06 12:11:39;;;;;;;8.75;1.27;;;;;;;;;;5012054;28;20125;-82
2022/07/06 12:14:14;;;;;;;9.20;1.00;;;;;;;;;;5010711;28;20050;-81
2022/07/06 12:16:41;;;;;;;2.80;1.08;;;;;;;;;;5011677;28;20204;-80
2022/07/06 12:19:11;;;;;;;10.63;1.85;;;;;;;;;;5011978;28;20141;-80
2022/07/06 12:21:48;;;;;;;3.45;0.55;;;;;;;;;;5011463;28;20053;-80
2022/07/06 12:24:26;;;;;;;3.53;0.45;;;;;;;;;;5011490;28;20081;-82
2022/07/06 12:26:54;;;;;;;4.32;0.60;;;;;;;;;;5009506;28;20136;-81
2022/07/06 12:29:22;;;;;;;8.27;1.15;;;;;;;;;;5008694;28;20081;-82
2022/07/06 12:31:57;;;;;;;5.38;0.50;;;;;;;;;;5021297;22;20557;-77
2022/07/06 12:34:30;;;;;;;4.93;0.85;;;;;;;;;;5025633;28;20136;-77
2022/07/06 12:36:58;;;;;;;9.55;1.10;;;;;;;;;;5024759;28;20053;-76
2022/07/06 12:43:01;;;;;;;8.75;0.60;;;;;;;;;;5028406;28;20513;-81
2022/07/06 12:45:29;;;;;;;6.38;1.00;;;;;;;;;;5031164;28;20045;-81
2022/07/06 12:48:01;;;;;;;12.20;1.60;;;;;;;;;;5029901;28;20080;-80
2022/07/06 12:50:35;;;;;;;8.23;1.90;;;;;;;;;;5031202;28;20136;-81
2022/07/06 12:53:03;;;;;;;1.07;0.40;;;;;;;;;;5029758;28;20104;-80
2022/07/06 12:55:31;;;;;;;2.47;0.43;;;;;;;;;;5031662;28;20371;-81
2022/07/06 12:57:59;;;;;;;5.57;0.60;;;;;;;;;;5031383;28;20080;-80
2022/07/06 13:00:26;;;;;;;2.83;0.60;;;;;;;;;;5029704;28;20097;-82
2022/07/06 13:02:54;;;;;;;2.53;0.70;;;;;;;;;;5029751;28;20132;-80
2022/07/06 13:05:38;;;;;;;3.03;0.50;;;;;;;;;;5029910;28;20497;-81
2022/07/06 13:08:06;;;;;;;9.05;0.70;;;;;;;;;;5029818;28;20587;-81
2022/07/06 13:10:35;;;;;;;2.90;0.43;;;;;;;;;;5030997;28;20045;-81
2022/07/06 13:13:02;;;;;;;3.35;0.55;;;;;;;;;;5030083;28;20060;-81
2022/07/06 13:15:30;;;;;;;3.40;0.50;;;;;;;;;;5031547;28;20101;-81
2022/07/06 13:17:57;;;;;;;4.80;0.52;;;;;;;;;;5031141;28;20105;-80
2022/07/06 13:20:24;;;;;;;1.00;0.43;;;;;;;;;;5030936;28;20064;-81
2022/07/06 13:22:51;;;;;;;2.50;0.50;;;;;;;;;;5030964;28;20103;-82
2022/07/06 13:25:19;;;;;;;0.95;0.47;;;;;;;;;;5029426;28;20095;-81
2022/07/06 13:27:46;;;;;;;2.15;0.50;;;;;;;;;;5031029;28;20049;-82
2022/07/06 13:30:13;;;;;;;3.00;0.52;;;;;;;;;;5030918;28;20423;-82
2022/07/06 13:32:41;;;;;;;0.95;0.30;;;;;;;;;;5030595;28;20103;-82
2022/07/06 13:35:09;;;;;;;4.85;0.40;;;;;;;;;;5029925;28;20084;-82
2022/07/06 13:37:37;;;;;;;3.22;0.50;;;;;;;;;;5029601;28;20060;-83
2022/07/06 13:40:04;;;;;;;2.42;0.40;;;;;;;;;;5030760;28;20077;-82
2022/07/06 13:42:32;;;;;;;4.13;0.47;;;;;;;;;;5030647;28;20095;-81
2022/07/06 13:44:59;;;;;;;3.55;0.52;;;;;;;;;;5031078;28;20095;-82
2022/07/06 13:47:26;;;;;;;1.45;0.30;;;;;;;;;;5025912;28;20137;-81
2022/07/06 13:49:53;;;;;;;2.35;0.70;;;;;;;;;;5022470;28;20084;-83
2022/07/06 13:52:21;;;;;;;5.55;0.60;;;;;;;;;;5027761;28;20049;-82
2022/07/06 13:54:48;;;;;;;3.92;0.60;;;;;;;;;;5029683;28;20465;-83
2022/07/06 13:57:16;;;;;;;15.27;0.82;;;;;;;;;;5031104;28;20080;-83
2022/07/06 13:59:43;;;;;;;3.97;0.40;;;;;;;;;;5033133;28;20085;-82
2022/07/06 14:02:10;;;;;;;3.42;0.40;;;;;;;;;;5033339;28;20457;-83
2022/07/06 14:04:38;;;;;;;1.52;0.30;;;;;;;;;;5034640;28;20049;-82
2022/07/06 14:07:06;;;;;;;1.65;0.40;;;;;;;;;;5035015;28;20049;-83
2022/07/06 14:09:33;;;;;;;2.92;0.60;;;;;;;;;;5033394;28;20054;-82
2022/07/06 14:12:01;;;;;;;3.95;0.88;;;;;;;;;;5034709;28;20095;-82
2022/07/06 14:14:29;;;;;;;5.07;0.25;;;;;;;;;;5034763;28;20088;-83
2022/07/06 14:16:56;;;;;;;7.28;0.68;;;;;;;;;;5033510;28;20053;-82
2022/07/06 14:19:24;;;;;;;9.45;0.70;;;;;;;;;;5034754;28;20063;-82
2022/07/06 14:21:51;;;;;;;3.10;0.52;;;;;;;;;;5033432;28;20077;-82
2022/07/06 14:24:19;;;;;;;9.50;1.00;;;;;;;;;;5014769;28;20076;-82
2022/07/06 14:26:46;;;;;;;2.67;0.60;;;;;;;;;;5015033;28;20076;-83
2022/07/06 14:29:13;;;;;;;9.02;0.85;;;;;;;;;;5014663;28;20081;-83
2022/07/06 14:31:40;;;;;;;5.25;0.63;;;;;;;;;;5013757;28;20145;-82
2022/07/06 14:34:08;;;;;;;4.75;0.60;;;;;;;;;;5032846;28;20562;-83
2022/07/06 14:36:37;;;;;;;2.50;0.50;;;;;;;;;;5034197;28;20119;-83
2022/07/06 14:39:05;;;;;;;3.92;0.50;;;;;;;;;;5034269;28;20062;-82
2022/07/06 14:41:32;;;;;;;5.22;0.60;;;;;;;;;;5032118;28;20049;-82
2022/07/06 14:43:59;;;;;;;10.80;1.00;;;;;;;;;;5033148;28;20045;-83
2022/07/06 14:46:27;;;;;;;3.67;0.95;;;;;;;;;;5033411;28;20049;-83
2022/07/06 14:48:54;;;;;;;4.35;0.80;;;;;;;;;;5033706;28;20100;-83
2022/07/06 14:51:22;;;;;;;2.65;1.00;;;;;;;;;;5032455;28;20089;-82
2022/07/06 14:53:49;;;;;;;2.42;0.50;;;;;;;;;;5032016;28;20194;-82
2022/07/06 14:56:16;;;;;;;3.40;0.80;;;;;;;;;;5030045;28;20092;-82
2022/07/06 14:58:44;;;;;;;3.50;0.82;;;;;;;;;;5027171;28;20077;-82
2022/07/06 15:01:31;;;;;;;7.32;0.80;;;;;;;;;;5033143;28;20046;-82
2022/07/06 15:03:58;;;;;;;5.55;0.70;;;;;;;;;;5032921;28;20429;-81
2022/07/06 15:06:26;;;;;;;13.18;0.65;;;;;;;;;;5032088;28;20057;-83
2022/07/06 15:09:13;;;;;;;6.18;0.90;;;;;;;;;;5031711;28;20050;-81
2022/07/06 15:11:41;;;;;;;6.60;0.50;;;;;;;;;;5032673;28;20084;-82
2022/07/06 15:14:09;;;;;;;3.58;0.70;;;;;;;;;;5032695;28;20458;-81
2022/07/06 15:16:37;;;;;;;5.75;0.80;;;;;;;;;;5032454;28;20719;-82
2022/07/06 15:19:04;;;;;;;6.10;0.88;;;;;;;;;;5033110;28;20049;-81
2022/07/06 15:21:31;;;;;;;4.75;0.57;;;;;;;;;;5032541;28;20050;-82
2022/07/06 15:23:58;;;;;;;8.88;0.65;;;;;;;;;;5032380;28;20088;-82